SondeTracker

Meteorological Radiosondes Database

Operations

Sounding was ended - last measurement: 2022-12-07 01:34:44z

MAP
About Radiosonde

Number: D22043116 (22043116)

Launch Site: Lincoln [IL] (US)

Type: DFM17

AUX: NO

Frequency: 405.011 MHz

Max Speed: 293 km/h at 34529 m

Average Speed: 133.80 km/h

Max Altitude: 34731 m

Average Ascent Speed: 5.06 m/s

Average Descent Speed: 12.33 m/s

Status: UNKNOWN

Status Changes
Launch Site Type AUX Frequency Status Finder Landing Point Description Changes made by
APRS Statistics

Received Frames: 336

First Frame [UTC]: 2022-12-06 23:29:24z

Last Frame [UTC]: 2022-12-07 01:34:44z

Receivers: K9SWX, KD9IXX

Flight Time: 02:05:20 h

Distance From First Measurement: 285.42 km

Nearest City: Marion [IN] (US) [10.00 km]

Nearest Hunter: him2 [10.12 km]

Ground Altitude: 261 m

Distance from QTH: 0.00 km

APRS Data
Receiver Number Date/Time [UTC] φ λ Course [°] Speed [km/h] Altitude [m] Description
KD9IXXD220431162022-12-07 01:34:4440.5454-85.5417741005681Clb=-5.2m/s t=-17.7C h=-1.0% p=-1.0hPa 405.010 MHz Type=DFM17 ser=22043116 Radiosonde
KD9IXXD220431162022-12-07 01:34:1340.5439-85.5491761025805Clb=-5.4m/s t=-18.7C h=-1.0% p=-1.0hPa 405.010 MHz Type=DFM17 ser=22043116 Radiosonde
KD9IXXD220431162022-12-07 01:32:4040.5364-85.5845731156359Clb=-5.3m/s t=-23.2C h=-1.0% p=-1.0hPa 405.010 MHz Type=DFM17 ser=22043116 Radiosonde
KD9IXXD220431162022-12-07 01:32:0940.5345-85.5926701196478Clb=-5.4m/s t=-24.0C h=-1.0% p=-1.0hPa 405.010 MHz Type=DFM17 ser=22043116 Radiosonde
KD9IXXD220431162022-12-07 01:31:3840.5312-85.6043691226648Clb=-5.4m/s t=-24.9C h=-1.0% p=-1.0hPa 405.010 MHz Type=DFM17 ser=22043116 Radiosonde
KD9IXXD220431162022-12-07 01:31:0740.5279-85.6167711286826Clb=-5.3m/s t=-26.2C h=-1.0% p=-1.0hPa 405.010 MHz Type=DFM17 ser=22043116 Radiosonde
KD9IXXD220431162022-12-07 01:30:3640.5247-85.6295731377001Clb=-5.5m/s t=-27.0C h=-1.0% p=-1.0hPa 405.010 MHz Type=DFM17 ser=22043116 Radiosonde
KD9IXXD220431162022-12-07 01:30:0540.5217-85.6432741417182Clb=-6.0m/s t=-28.6C h=-1.0% p=-1.0hPa 405.010 MHz Type=DFM17 ser=22043116 Radiosonde
KD9IXXD220431162022-12-07 01:29:3340.5183-85.6591731437396Clb=-5.9m/s t=-29.8C h=-1.0% p=-1.0hPa 405.010 MHz Type=DFM17 ser=22043116 Radiosonde
KD9IXXD220431162022-12-07 01:29:0240.5157-85.6716741467560Clb=-6.0m/s t=-30.9C h=-1.0% p=-1.0hPa 405.010 MHz Type=DFM17 ser=22043116 Radiosonde
KD9IXXD220431162022-12-07 01:28:3140.5127-85.6852741417742Clb=-6.2m/s t=-32.4C h=-1.0% p=-1.0hPa 405.010 MHz Type=DFM17 ser=22043116 Radiosonde
KD9IXXD220431162022-12-07 01:28:0040.5099-85.6992761447933Clb=-6.2m/s t=-34.0C h=-1.0% p=-1.0hPa 405.010 MHz Type=DFM17 ser=22043116 Radiosonde
KD9IXXD220431162022-12-07 01:27:2940.5076-85.7142791528120Clb=-5.9m/s t=-35.3C h=-1.0% p=-1.0hPa 405.010 MHz Type=DFM17 ser=22043116 Radiosonde
KD9IXXD220431162022-12-07 01:26:5840.5052-85.7294781578310Clb=-6.1m/s t=-36.8C h=-1.0% p=-1.0hPa 405.010 MHz Type=DFM17 ser=22043116 Radiosonde
KD9IXXD220431162022-12-07 01:26:2740.5027-85.7454781638505Clb=-6.4m/s t=-38.3C h=-1.0% p=-1.0hPa 405.010 MHz Type=DFM17 ser=22043116 Radiosonde
KD9IXXD220431162022-12-07 01:25:5640.5006-85.7618811678702Clb=-6.1m/s t=-40.0C h=-1.0% p=-1.0hPa 405.010 MHz Type=DFM17 ser=22043116 Radiosonde
KD9IXXD220431162022-12-07 01:25:2540.4988-85.7789831728901Clb=-6.5m/s t=-41.7C h=-1.0% p=-1.0hPa 405.010 MHz Type=DFM17 ser=22043116 Radiosonde
KD9IXXD220431162022-12-07 01:24:5440.4975-85.7975841839107Clb=-6.4m/s t=-43.0C h=-1.0% p=-1.0hPa 405.010 MHz Type=DFM17 ser=22043116 Radiosonde
KD9IXXD220431162022-12-07 01:24:2340.4964-85.8163862049301Clb=-6.2m/s t=-43.7C h=-1.0% p=-1.0hPa 405.010 MHz Type=DFM17 ser=22043116 Radiosonde
KD9IXXD220431162022-12-07 01:23:5240.4952-85.8374852099503Clb=-6.5m/s t=-44.8C h=-1.0% p=-1.0hPa 405.010 MHz Type=DFM17 ser=22043116 Radiosonde
KD9IXXD220431162022-12-07 01:23:2140.4939-85.8592842179706Clb=-6.5m/s t=-46.3C h=-1.0% p=-1.0hPa 405.010 MHz Type=DFM17 ser=22043116 Radiosonde
KD9IXXD220431162022-12-07 01:22:5040.4923-85.8813842199916Clb=-6.5m/s t=-48.0C h=-1.0% p=-1.0hPa 405.010 MHz Type=DFM17 ser=22043116 Radiosonde
KD9IXXD220431162022-12-07 01:22:1940.4908-85.90428521510131Clb=-6.7m/s t=-48.8C h=-1.0% p=-1.0hPa 405.010 MHz Type=DFM17 ser=22043116 Radiosonde
KD9IXXD220431162022-12-07 01:21:4840.4891-85.92588322410337Clb=-6.7m/s t=-49.3C h=-1.0% p=-1.0hPa 405.010 MHz Type=DFM17 ser=22043116 Radiosonde
KD9IXXD220431162022-12-07 01:21:1740.4868-85.94928222410562Clb=-7.2m/s t=-51.0C h=-1.0% p=-1.0hPa 405.010 MHz Type=DFM17 ser=22043116 Radiosonde
KD9IXXD220431162022-12-07 01:20:4640.4846-85.9718322610778Clb=-6.9m/s t=-52.5C h=-1.0% p=-1.0hPa 405.010 MHz Type=DFM17 ser=22043116 Radiosonde
KD9IXXD220431162022-12-07 01:20:1540.4833-85.99418622811002Clb=-7.1m/s t=-54.0C h=-1.0% p=-1.0hPa 405.010 MHz Type=DFM17 ser=22043116 Radiosonde
KD9IXXD220431162022-12-07 01:19:4340.4824-86.01788722611237Clb=-7.2m/s t=-55.7C h=-1.0% p=-1.0hPa 405.010 MHz Type=DFM17 ser=22043116 Radiosonde
KD9IXXD220431162022-12-07 01:19:1240.4817-86.04088822611466Clb=-7.4m/s t=-56.8C h=-1.0% p=-1.0hPa 405.010 MHz Type=DFM17 ser=22043116 Radiosonde
KD9IXXD220431162022-12-07 01:18:4140.481-86.0648822611697Clb=-7.7m/s t=-58.5C h=-1.0% p=-1.0hPa 405.010 MHz Type=DFM17 ser=22043116 Radiosonde
KD9IXXD220431162022-12-07 01:18:1040.4802-86.08648722011935Clb=-7.6m/s t=-58.8C h=-1.0% p=-1.0hPa 405.010 MHz Type=DFM17 ser=22043116 Radiosonde
KD9IXXD220431162022-12-07 01:17:3940.4796-86.10938821312185Clb=-7.7m/s t=-59.8C h=-1.0% p=-1.0hPa 405.010 MHz Type=DFM17 ser=22043116 Radiosonde
KD9IXXD220431162022-12-07 01:17:0840.479-86.13028721312422Clb=-8.0m/s t=-59.9C h=-1.0% p=-1.0hPa 405.010 MHz Type=DFM17 ser=22043116 Radiosonde
KD9IXXD220431162022-12-07 01:16:3740.4781-86.15148620012672Clb=-8.1m/s t=-60.3C h=-1.0% p=-1.0hPa 405.010 MHz Type=DFM17 ser=22043116 Radiosonde
KD9IXXD220431162022-12-07 01:16:0640.4766-86.17118119412922Clb=-8.2m/s t=-60.6C h=-1.0% p=-1.0hPa 405.010 MHz Type=DFM17 ser=22043116 Radiosonde
KD9IXXD220431162022-12-07 01:15:4040.474-86.19047919413176Clb=-8.3m/s t=-60.7C h=-1.0% p=-1.0hPa 405.010 MHz Type=DFM17 ser=22043116 Radiosonde
KD9IXXD220431162022-12-07 01:15:1540.4716-86.21138320413440Clb=-8.3m/s t=-61.7C h=-1.0% p=-1.0hPa 405.010 MHz Type=DFM17 ser=22043116 Radiosonde
KD9IXXD220431162022-12-07 01:14:4840.47-86.23048518913693Clb=-8.6m/s t=-62.1C h=-1.0% p=-1.0hPa 405.010 MHz Type=DFM17 ser=22043116 Radiosonde
KD9IXXD220431162022-12-07 01:14:2340.4685-86.24928219313965Clb=-8.9m/s t=-62.5C h=-1.0% p=-1.0hPa 405.010 MHz Type=DFM17 ser=22043116 Radiosonde
KD9IXXD220431162022-12-07 01:13:5440.4673-86.26938919614247Clb=-8.9m/s t=-62.8C h=-1.0% p=-1.0hPa 405.010 MHz Type=DFM17 ser=22043116 Radiosonde
KD9IXXD220431162022-12-07 01:13:2640.4677-86.28839217214535Clb=-9.1m/s t=-63.7C h=-1.0% p=-1.0hPa 405.010 MHz Type=DFM17 ser=22043116 Radiosonde
KD9IXXD220431162022-12-07 01:12:5640.4682-86.30499014314836Clb=-9.6m/s t=-65.2C h=-1.0% p=-1.0hPa 405.010 MHz Type=DFM17 ser=22043116 Radiosonde
KD9IXXD220431162022-12-07 01:12:2540.4682-86.31918513715129Clb=-9.7m/s t=-64.9C h=-1.0% p=-1.0hPa 405.010 MHz Type=DFM17 ser=22043116 Radiosonde
KD9IXXD220431162022-12-07 01:11:5440.467-86.33378514115448Clb=-9.8m/s t=-65.8C h=-1.0% p=-1.0hPa 405.010 MHz Type=DFM17 ser=22043116 Radiosonde
KD9IXXD220431162022-12-07 01:11:2440.466-86.34768013315765Clb=-10.6m/s t=-66.8C h=-1.0% p=-1.0hPa 405.010 MHz Type=DFM17 ser=22043116 Radiosonde
KD9IXXD220431162022-12-07 01:10:5440.4629-86.36127314316106Clb=-10.7m/s t=-67.2C h=-1.0% p=-1.0hPa 405.010 MHz Type=DFM17 ser=22043116 Radiosonde
KD9IXXD220431162022-12-07 01:10:2340.4602-86.37457213516434Clb=-10.9m/s t=-67.8C h=-1.0% p=-1.0hPa 405.010 MHz Type=DFM17 ser=22043116 Radiosonde
KD9IXXD220431162022-12-07 01:09:5140.4566-86.38777013916781Clb=-11.2m/s t=-67.4C h=-1.0% p=-1.0hPa 405.010 MHz Type=DFM17 ser=22043116 Radiosonde
KD9IXXD220431162022-12-07 01:09:1840.455-86.40179012417136Clb=-11.3m/s t=-65.8C h=-1.0% p=-1.0hPa 405.010 MHz Type=DFM17 ser=22043116 Radiosonde
KD9IXXD220431162022-12-07 01:08:4540.4553-86.4125919617505Clb=-12.2m/s t=-64.1C h=-1.0% p=-1.0hPa 405.010 MHz Type=DFM17 ser=22043116 Radiosonde
KD9IXXD220431162022-12-07 01:08:1340.455-86.4219908117897Clb=-11.9m/s t=-64.4C h=-1.0% p=-1.0hPa 405.010 MHz Type=DFM17 ser=22043116 Radiosonde
KD9IXXD220431162022-12-07 01:07:4140.4557-86.43948018271Clb=-12.7m/s t=-65.2C h=-1.0% p=-1.0hPa 405.010 MHz Type=DFM17 ser=22043116 Radiosonde
KD9IXXD220431162022-12-07 01:07:0540.4559-86.4387858318674Clb=-13.3m/s t=-65.9C h=-1.0% p=-1.0hPa 405.010 MHz Type=DFM17 ser=22043116 Radiosonde
KD9IXXD220431162022-12-07 01:06:3140.4549-86.4464777419090Clb=-13.7m/s t=-67.1C h=-1.0% p=-1.0hPa 405.010 MHz Type=DFM17 ser=22043116 Radiosonde
KD9IXXD220431162022-12-07 01:05:5740.4542-86.4548908519524Clb=-14.3m/s t=-65.6C h=-1.0% p=-1.0hPa 405.010 MHz Type=DFM17 ser=22043116 Radiosonde
KD9IXXD220431162022-12-07 01:05:2240.4542-86.4633966719989Clb=-14.7m/s t=-63.3C h=-1.0% p=-1.0hPa 405.010 MHz Type=DFM17 ser=22043116 Radiosonde
KD9IXXD220431162022-12-07 01:04:4840.4539-86.4683695020448Clb=-15.6m/s t=-63.5C h=-1.0% p=-1.0hPa 405.010 MHz Type=DFM17 ser=22043116 Radiosonde
KD9IXXD220431162022-12-07 01:04:1240.4516-86.4737646320948Clb=-16.9m/s t=-63.2C h=-1.0% p=-1.0hPa 405.010 MHz Type=DFM17 ser=22043116 Radiosonde
KD9IXXD220431162022-12-07 01:03:4140.4498-86.4804786921466Clb=-17.1m/s t=-63.6C h=-1.0% p=-1.0hPa 405.010 MHz Type=DFM17 ser=22043116 Radiosonde
KD9IXXD220431162022-12-07 01:03:1040.4484-86.4853525022041Clb=-17.6m/s t=-64.5C h=-1.0% p=-1.0hPa 405.010 MHz Type=DFM17 ser=22043116 Radiosonde
KD9IXXD220431162022-12-07 01:02:3840.4476-86.491965722577Clb=-18.3m/s t=-62.2C h=-1.0% p=-1.0hPa 405.010 MHz Type=DFM17 ser=22043116 Radiosonde
KD9IXXD220431162022-12-07 01:02:0740.448-86.4972825423160Clb=-18.9m/s t=-60.7C h=-1.0% p=-1.0hPa 405.010 MHz Type=DFM17 ser=22043116 Radiosonde
KD9IXXD220431162022-12-07 01:01:3740.447-86.5016683723780Clb=-20.3m/s t=-62.4C h=-1.0% p=-1.0hPa 405.010 MHz Type=DFM17 ser=22043116 Radiosonde
KD9IXXD220431162022-12-07 01:01:0640.4459-86.5046633124430Clb=-21.6m/s t=-61.2C h=-1.0% p=-1.0hPa 405.010 MHz Type=DFM17 ser=22043116 Radiosonde
KD9IXXD220431162022-12-07 01:00:5440.4454-86.5098896325134Clb=-23.6m/s t=-58.6C h=-1.0% p=-1.0hPa 405.010 MHz Type=DFM17 ser=22043116 Radiosonde
KD9IXXD220431162022-12-07 01:00:5240.4447-86.516856125875Clb=-24.1m/s t=-59.0C h=-1.0% p=-1.0hPa 405.010 MHz Type=DFM17 ser=22043116 Radiosonde
KD9IXXD220431162022-12-07 01:00:5140.4442-86.5228877426631Clb=-24.2m/s t=-55.0C h=-1.0% p=-1.0hPa 405.010 MHz Type=DFM17 ser=22043116 Radiosonde
KD9IXXD220431162022-12-07 01:00:4940.4428-86.5301827227408Clb=-25.4m/s t=-55.1C h=-1.0% p=-1.0hPa 405.010 MHz Type=DFM17 ser=22043116 Radiosonde
KD9IXXD220431162022-12-07 01:00:4740.4421-86.5368675228200Clb=-27.1m/s t=-53.7C h=-1.0% p=-1.0hPa 405.010 MHz Type=DFM17 ser=22043116 Radiosonde
KD9IXXD220431162022-12-07 01:00:4140.4413-86.54359610428948Clb=-13.2m/s t=-55.8C h=-1.0% p=-1.0hPa 405.010 MHz Type=DFM17 ser=22043116 Radiosonde
KD9IXXD220431162022-12-07 01:00:3340.4408-86.5521748929289Clb=-10.2m/s t=-57.1C h=-1.0% p=-1.0hPa 405.010 MHz Type=DFM17 ser=22043116 Radiosonde
KD9IXXD220431162022-12-07 01:00:2240.4393-86.5623847629761Clb=-15.7m/s t=-56.2C h=-1.0% p=-1.0hPa 405.010 MHz Type=DFM17 ser=22043116 Radiosonde
KD9IXXD220431162022-12-07 01:00:2040.4385-86.5721818730162Clb=-15.0m/s t=-55.1C h=-1.0% p=-1.0hPa 405.010 MHz Type=DFM17 ser=22043116 Radiosonde
KD9IXXD220431162022-12-07 01:00:1940.4365-86.58338610930546Clb=-14.6m/s t=-54.7C h=-1.0% p=-1.0hPa 405.010 MHz Type=DFM17 ser=22043116 Radiosonde
KD9IXXD220431162022-12-07 01:00:1240.4352-86.59838216731016Clb=-14.6m/s t=-53.8C h=-1.0% p=-1.0hPa 405.010 MHz Type=DFM17 ser=22043116 Radiosonde
KD9IXXD220431162022-12-07 00:59:3940.435-86.613610013331483Clb=-16.9m/s t=-52.7C h=-1.0% p=-1.0hPa 405.010 MHz Type=DFM17 ser=22043116 Radiosonde
KD9IXXD220431162022-12-07 00:58:5740.4354-86.631810720032038Clb=-15.3m/s t=-50.9C h=-1.0% p=-1.0hPa 405.010 MHz Type=DFM17 ser=22043116 Radiosonde
KD9IXXD220431162022-12-07 00:58:1440.4354-86.650410715232569Clb=-18.4m/s t=-48.3C h=-1.0% p=-1.0hPa 405.010 MHz Type=DFM17 ser=22043116 Radiosonde
KD9IXXD220431162022-12-07 00:57:3440.436-86.66749923233056Clb=-22.8m/s t=-48.2C h=-1.0% p=-1.0hPa 405.010 MHz Type=DFM17 ser=22043116 Radiosonde
KD9IXXD220431162022-12-07 00:56:5240.4355-86.68887924833667Clb=-17.4m/s t=-48.1C h=-1.0% p=-1.0hPa 405.010 MHz Type=DFM17 ser=22043116 Radiosonde
KD9IXXD220431162022-12-07 00:56:1040.4349-86.71038118134213Clb=-19.9m/s t=-47.4C h=-1.0% p=-1.0hPa 405.010 MHz Type=DFM17 ser=22043116 Radiosonde
KD9IXXD220431162022-12-07 00:55:2840.4342-86.73449020634731Clb=4.2m/s t=-47.2C h=-1.0% p=-1.0hPa 405.010 MHz Type=DFM17 ser=22043116 Radiosonde
KD9IXXD220431162022-12-07 00:54:4740.434-86.75678829334529Clb=9.9m/s t=-47.5C h=-1.0% p=-1.0hPa 405.010 MHz Type=DFM17 ser=22043116 Radiosonde
KD9IXXD220431162022-12-07 00:54:0540.4342-86.77948525634318Clb=7.1m/s t=-47.1C h=-1.0% p=-1.0hPa 405.010 MHz Type=DFM17 ser=22043116 Radiosonde
KD9IXXD220431162022-12-07 00:53:2140.4336-86.80238125034116Clb=6.1m/s t=-46.8C h=-1.0% p=-1.0hPa 405.010 MHz Type=DFM17 ser=22043116 Radiosonde
K9SWXD220431162022-12-07 00:53:0840.433-86.82098827433963Clb=6.8m/s t=-104.6C h=-1.0% p=-1.0hPa 405.011 MHz Type=DFM17 ser=22043116 Radiosonde
KD9IXXD220431162022-12-07 00:52:3640.4329-86.82638023733920Clb=6.6m/s t=-47.5C h=-1.0% p=-1.0hPa 405.010 MHz Type=DFM17 ser=22043116 Radiosonde
K9SWXD220431162022-12-07 00:52:2140.4316-86.84628922433758Clb=7.5m/s t=-47.8C h=-1.0% p=-1.0hPa 405.011 MHz Type=DFM17 ser=22043116 Radiosonde
KD9IXXD220431162022-12-07 00:51:4740.4315-86.85057321533716Clb=9.1m/s t=-47.7C h=-1.0% p=-1.0hPa 405.010 MHz Type=DFM17 ser=22043116 Radiosonde
K9SWXD220431162022-12-07 00:51:3440.4309-86.85958320633644Clb=4.5m/s t=-47.2C h=-1.0% p=-1.0hPa 405.011 MHz Type=DFM17 ser=22043116 Radiosonde
KD9IXXD220431162022-12-07 00:51:0140.4304-86.87169119833541Clb=7.2m/s t=-47.4C h=-1.0% p=-1.0hPa 405.010 MHz Type=DFM17 ser=22043116 Radiosonde
K9SWXD220431162022-12-07 00:50:4940.4298-86.88298223533443Clb=2.9m/s t=-47.8C h=-1.0% p=-1.0hPa 405.011 MHz Type=DFM17 ser=22043116 Radiosonde
KD9IXXD220431162022-12-07 00:50:1540.4298-86.89229917233357Clb=6.3m/s t=-47.7C h=-1.0% p=-1.0hPa 405.010 MHz Type=DFM17 ser=22043116 Radiosonde
KD9IXXD220431162022-12-07 00:49:3040.4292-86.9129118733174Clb=5.3m/s t=-47.8C h=-1.0% p=-1.0hPa 405.010 MHz Type=DFM17 ser=22043116 Radiosonde
KD9IXXD220431162022-12-07 00:48:4440.4292-86.9317817832983Clb=8.8m/s t=-48.5C h=-1.0% p=-1.0hPa 405.010 MHz Type=DFM17 ser=22043116 Radiosonde
KD9IXXD220431162022-12-07 00:47:5740.4292-86.95039721532777Clb=4.6m/s t=-46.9C h=-1.0% p=-1.0hPa 405.010 MHz Type=DFM17 ser=22043116 Radiosonde
K9SWXD220431162022-12-07 00:47:4340.4293-86.95529921132719Clb=3.5m/s t=-46.9C h=-1.0% p=-1.0hPa 405.011 MHz Type=DFM17 ser=22043116 Radiosonde
KD9IXXD220431162022-12-07 00:47:0740.4294-86.96898217632567Clb=8.1m/s t=-49.0C h=-1.0% p=-1.0hPa 405.010 MHz Type=DFM17 ser=22043116 Radiosonde
K9SWXD220431162022-12-07 00:46:5240.4295-86.97539414432485Clb=3.8m/s t=-49.2C h=-1.0% p=-1.0hPa 405.011 MHz Type=DFM17 ser=22043116 Radiosonde
KD9IXXD220431162022-12-07 00:46:1940.4295-86.98798723032334Clb=3.6m/s t=-49.5C h=-1.0% p=-1.0hPa 405.010 MHz Type=DFM17 ser=22043116 Radiosonde
K9SWXD220431162022-12-07 00:46:0540.4289-86.9958513132248Clb=1.9m/s t=-50.1C h=-1.0% p=-1.0hPa 405.011 MHz Type=DFM17 ser=22043116 Radiosonde
KD9IXXD220431162022-12-07 00:45:3240.4291-87.005210318732118Clb=10.4m/s t=-50.0C h=-1.0% p=-1.0hPa 405.010 MHz Type=DFM17 ser=22043116 Radiosonde
K9SWXD220431162022-12-07 00:45:1840.4293-87.01379112432006Clb=3.1m/s t=-50.4C h=-1.0% p=-1.0hPa 405.011 MHz Type=DFM17 ser=22043116 Radiosonde
KD9IXXD220431162022-12-07 00:44:4640.4298-87.02389413131890Clb=7.0m/s t=-50.8C h=-1.0% p=-1.0hPa 405.010 MHz Type=DFM17 ser=22043116 Radiosonde
K9SWXD220431162022-12-07 00:44:3340.4301-87.02818611531836Clb=2.8m/s t=-50.9C h=-1.0% p=-1.0hPa 405.011 MHz Type=DFM17 ser=22043116 Radiosonde
KD9IXXD220431162022-12-07 00:44:0040.4301-87.03976513731688Clb=7.1m/s t=-51.4C h=-1.0% p=-1.0hPa 405.010 MHz Type=DFM17 ser=22043116 Radiosonde
K9SWXD220431162022-12-07 00:43:5240.4297-87.04510016131620Clb=11.6m/s t=-51.9C h=-1.0% p=-1.0hPa 405.011 MHz Type=DFM17 ser=22043116 Radiosonde
KD9IXXD220431162022-12-07 00:43:3040.4295-87.05537613531507Clb=6.8m/s t=-52.5C h=-1.0% p=-1.0hPa 405.010 MHz Type=DFM17 ser=22043116 Radiosonde
KD9IXXD220431162022-12-07 00:42:5840.4287-87.07057813331331Clb=7.7m/s t=-53.2C h=-1.0% p=-1.0hPa 405.010 MHz Type=DFM17 ser=22043116 Radiosonde
K9SWXD220431162022-12-07 00:42:5040.4288-87.07659519131263Clb=5.3m/s t=-54.3C h=-1.0% p=-1.0hPa 405.011 MHz Type=DFM17 ser=22043116 Radiosonde
KD9IXXD220431162022-12-07 00:42:3140.4282-87.08546612031152Clb=3.8m/s t=-54.3C h=-1.0% p=-1.0hPa 405.010 MHz Type=DFM17 ser=22043116 Radiosonde
K9SWXD220431162022-12-07 00:42:2240.4278-87.09188118731075Clb=1.5m/s t=-54.5C h=-1.0% p=-1.0hPa 405.011 MHz Type=DFM17 ser=22043116 Radiosonde
KD9IXXD220431162022-12-07 00:41:5740.4262-87.10149012030944Clb=2.0m/s t=-54.9C h=-1.0% p=-1.0hPa 405.010 MHz Type=DFM17 ser=22043116 Radiosonde
KD9IXXD220431162022-12-07 00:41:5540.4248-87.11477313930744Clb=4.7m/s t=-55.4C h=-1.0% p=-1.0hPa 405.010 MHz Type=DFM17 ser=22043116 Radiosonde
KD9IXXD220431162022-12-07 00:41:5040.4236-87.1285713530515Clb=7.6m/s t=-54.3C h=-1.0% p=-1.0hPa 405.010 MHz Type=DFM17 ser=22043116 Radiosonde
K9SWXD220431162022-12-07 00:41:4840.4229-87.1339015930417Clb=3.1m/s t=-53.7C h=-1.0% p=-1.0hPa 405.011 MHz Type=DFM17 ser=22043116 Radiosonde
KD9IXXD220431162022-12-07 00:41:4240.4213-87.14056314130287Clb=10.6m/s t=-54.0C h=-1.0% p=-1.0hPa 405.010 MHz Type=DFM17 ser=22043116 Radiosonde
K9SWXD220431162022-12-07 00:41:3940.419-87.1502859830070Clb=7.7m/s t=-55.2C h=-1.0% p=-1.0hPa 405.011 MHz Type=DFM17 ser=22043116 Radiosonde
KD9IXXD220431162022-12-07 00:41:3440.4189-87.1517614130052Clb=5.9m/s t=-55.2C h=-1.0% p=-1.0hPa 405.010 MHz Type=DFM17 ser=22043116 Radiosonde
K9SWXD220431162022-12-07 00:41:3340.4186-87.15398413029989Clb=0.7m/s t=-55.6C h=-1.0% p=-1.0hPa 405.011 MHz Type=DFM17 ser=22043116 Radiosonde
KD9IXXD220431162022-12-07 00:41:3240.4181-87.16167913129825Clb=9.8m/s t=-55.4C h=-1.0% p=-1.0hPa 405.010 MHz Type=DFM17 ser=22043116 Radiosonde
KD9IXXD220431162022-12-07 00:41:3040.4175-87.1712788129638Clb=3.8m/s t=-56.3C h=-1.0% p=-1.0hPa 405.010 MHz Type=DFM17 ser=22043116 Radiosonde
KD9IXXD220431162022-12-07 00:41:2940.4163-87.1807546729446Clb=2.0m/s t=-56.5C h=-1.0% p=-1.0hPa 405.010 MHz Type=DFM17 ser=22043116 Radiosonde
K9SWXD220431162022-12-07 00:41:2840.4156-87.1849535729356Clb=0.6m/s t=-56.3C h=-1.0% p=-1.0hPa 405.011 MHz Type=DFM17 ser=22043116 Radiosonde
KD9IXXD220431162022-12-07 00:41:2740.4149-87.1893555029260Clb=4.3m/s t=-55.9C h=-1.0% p=-1.0hPa 405.010 MHz Type=DFM17 ser=22043116 Radiosonde
K9SWXD220431162022-12-07 00:41:2640.4146-87.1916766129213Clb=1.4m/s t=-55.7C h=-1.0% p=-1.0hPa 405.011 MHz Type=DFM17 ser=22043116 Radiosonde
KD9IXXD220431162022-12-07 00:41:2540.414-87.1975726529089Clb=3.4m/s t=-54.9C h=-1.0% p=-1.0hPa 405.010 MHz Type=DFM17 ser=22043116 Radiosonde
KD9IXXD220431162022-12-07 00:41:2340.4138-87.2064739328923Clb=3.5m/s t=-54.0C h=-1.0% p=-1.0hPa 405.010 MHz Type=DFM17 ser=22043116 Radiosonde
KD9IXXD220431162022-12-07 00:41:2040.4143-87.2157826728756Clb=5.1m/s t=-55.1C h=-1.0% p=-1.0hPa 405.010 MHz Type=DFM17 ser=22043116 Radiosonde
K9SWXD220431162022-12-07 00:41:1340.4144-87.2182926928709Clb=2.7m/s t=-55.1C h=-1.0% p=-1.0hPa 405.011 MHz Type=DFM17 ser=22043116 Radiosonde
KD9IXXD220431162022-12-07 00:40:4040.4144-87.2241884428571Clb=4.0m/s t=-54.8C h=-1.0% p=-1.0hPa 405.010 MHz Type=DFM17 ser=22043116 Radiosonde
K9SWXD220431162022-12-07 00:40:2740.4145-87.2258905228522Clb=0.9m/s t=-54.5C h=-1.0% p=-1.0hPa 405.011 MHz Type=DFM17 ser=22043116 Radiosonde
KD9IXXD220431162022-12-07 00:39:5240.4151-87.2307983728368Clb=7.3m/s t=-54.1C h=-1.0% p=-1.0hPa 405.010 MHz Type=DFM17 ser=22043116 Radiosonde
K9SWXD220431162022-12-07 00:39:4040.4152-87.2321723928314Clb=5.4m/s t=-53.8C h=-1.0% p=-1.0hPa 405.011 MHz Type=DFM17 ser=22043116 Radiosonde
KD9IXXD220431162022-12-07 00:39:0640.4149-87.2369543328149Clb=4.0m/s t=-54.3C h=-1.0% p=-1.0hPa 405.010 MHz Type=DFM17 ser=22043116 Radiosonde
K9SWXD220431162022-12-07 00:38:5340.4148-87.2384695428099Clb=6.7m/s t=-54.4C h=-1.0% p=-1.0hPa 405.011 MHz Type=DFM17 ser=22043116 Radiosonde
KD9IXXD220431162022-12-07 00:38:1940.4145-87.2437555627938Clb=9.2m/s t=-54.2C h=-1.0% p=-1.0hPa 405.010 MHz Type=DFM17 ser=22043116 Radiosonde
K9SWXD220431162022-12-07 00:38:0440.4141-87.24678611127848Clb=3.1m/s t=-53.9C h=-1.0% p=-1.0hPa 405.011 MHz Type=DFM17 ser=22043116 Radiosonde
KD9IXXD220431162022-12-07 00:37:2640.4133-87.2513647227726Clb=5.4m/s t=-53.7C h=-1.0% p=-1.0hPa 405.010 MHz Type=DFM17 ser=22043116 Radiosonde
K9SWXD220431162022-12-07 00:37:1240.4132-87.2536667027673Clb=4.7m/s t=-53.8C h=-1.0% p=-1.0hPa 405.011 MHz Type=DFM17 ser=22043116 Radiosonde
KD9IXXD220431162022-12-07 00:36:3440.4127-87.2598696727526Clb=6.0m/s t=-53.7C h=-1.0% p=-1.0hPa 405.010 MHz Type=DFM17 ser=22043116 Radiosonde
K9SWXD220431162022-12-07 00:36:1940.4122-87.2649827827405Clb=6.8m/s t=-54.2C h=-1.0% p=-1.0hPa 405.011 MHz Type=DFM17 ser=22043116 Radiosonde
KD9IXXD220431162022-12-07 00:35:4440.4117-87.2677768027339Clb=5.7m/s t=-54.6C h=-1.0% p=-1.0hPa 405.010 MHz Type=DFM17 ser=22043116 Radiosonde
K9SWXD220431162022-12-07 00:35:2840.4112-87.2728768927227Clb=8.8m/s t=-54.8C h=-1.0% p=-1.0hPa 405.011 MHz Type=DFM17 ser=22043116 Radiosonde
KD9IXXD220431162022-12-07 00:34:5440.4105-87.2763928127148Clb=3.7m/s t=-54.6C h=-1.0% p=-1.0hPa 405.010 MHz Type=DFM17 ser=22043116 Radiosonde
K9SWXD220431162022-12-07 00:34:4040.41-87.2791608927084Clb=3.3m/s t=-54.7C h=-1.0% p=-1.0hPa 405.011 MHz Type=DFM17 ser=22043116 Radiosonde
KD9IXXD220431162022-12-07 00:34:0540.4089-87.2832784326970Clb=5.5m/s t=-55.4C h=-1.0% p=-1.0hPa 405.010 MHz Type=DFM17 ser=22043116 Radiosonde
K9SWXD220431162022-12-07 00:33:5040.4083-87.2857629626901Clb=9.2m/s t=-55.1C h=-1.0% p=-1.0hPa 405.011 MHz Type=DFM17 ser=22043116 Radiosonde
KD9IXXD220431162022-12-07 00:33:1240.4071-87.2927768726734Clb=7.6m/s t=-55.9C h=-1.0% p=-1.0hPa 405.010 MHz Type=DFM17 ser=22043116 Radiosonde
K9SWXD220431162022-12-07 00:32:5740.407-87.2936788026708Clb=4.8m/s t=-56.0C h=-1.0% p=-1.0hPa 405.011 MHz Type=DFM17 ser=22043116 Radiosonde
KD9IXXD220431162022-12-07 00:32:1740.4064-87.2982768126571Clb=8.8m/s t=-56.5C h=-1.0% p=-1.0hPa 405.010 MHz Type=DFM17 ser=22043116 Radiosonde
K9SWXD220431162022-12-07 00:31:5940.4059-87.30237510926464Clb=6.5m/s t=-56.6C h=-1.0% p=-1.0hPa 405.011 MHz Type=DFM17 ser=22043116 Radiosonde
KD9IXXD220431162022-12-07 00:31:2340.4053-87.3068798326351Clb=7.2m/s t=-57.3C h=-1.0% p=-1.0hPa 405.010 MHz Type=DFM17 ser=22043116 Radiosonde
K9SWXD220431162022-12-07 00:31:0740.4048-87.3114678926219Clb=9.1m/s t=-57.3C h=-1.0% p=-1.0hPa 405.011 MHz Type=DFM17 ser=22043116 Radiosonde
KD9IXXD220431162022-12-07 00:30:3240.4045-87.3133648026161Clb=5.6m/s t=-58.0C h=-1.0% p=-1.0hPa 405.010 MHz Type=DFM17 ser=22043116 Radiosonde
K9SWXD220431162022-12-07 00:30:1740.404-87.3172775726032Clb=7.5m/s t=-58.7C h=-1.0% p=-1.0hPa 405.011 MHz Type=DFM17 ser=22043116 Radiosonde
KD9IXXD220431162022-12-07 00:29:3940.404-87.31931054425964Clb=6.5m/s t=-59.4C h=-1.0% p=-1.0hPa 405.010 MHz Type=DFM17 ser=22043116 Radiosonde
K9SWXD220431162022-12-07 00:29:2440.4042-87.3212897625905Clb=9.2m/s t=-59.7C h=-1.0% p=-1.0hPa 405.011 MHz Type=DFM17 ser=22043116 Radiosonde
KD9IXXD220431162022-12-07 00:28:4640.4042-87.3258947425786Clb=9.1m/s t=-59.5C h=-1.0% p=-1.0hPa 405.010 MHz Type=DFM17 ser=22043116 Radiosonde
K9SWXD220431162022-12-07 00:28:3340.4042-87.3321829825643Clb=4.6m/s t=-59.8C h=-1.0% p=-1.0hPa 405.011 MHz Type=DFM17 ser=22043116 Radiosonde
KD9IXXD220431162022-12-07 00:27:5840.4041-87.3337728025604Clb=6.2m/s t=-59.8C h=-1.0% p=-1.0hPa 405.010 MHz Type=DFM17 ser=22043116 Radiosonde
K9SWXD220431162022-12-07 00:27:4940.4037-87.337747625515Clb=5.0m/s t=-59.5C h=-1.0% p=-1.0hPa 405.011 MHz Type=DFM17 ser=22043116 Radiosonde
KD9IXXD220431162022-12-07 00:27:4240.3956-87.3793553524033Clb=5.4m/s t=-63.0C h=-1.0% p=-1.0hPa 405.010 MHz Type=DFM17 ser=22043116 Radiosonde
K9SWXD220431162022-12-07 00:27:4140.3956-87.38733723988Clb=5.9m/s t=-64.6C h=-1.0% p=-1.0hPa 405.011 MHz Type=DFM17 ser=22043116 Radiosonde
KD9IXXD220431162022-12-07 00:27:2240.3952-87.3822894423873Clb=5.7m/s t=-64.7C h=-1.0% p=-1.0hPa 405.010 MHz Type=DFM17 ser=22043116 Radiosonde
K9SWXD220431162022-12-07 00:27:1140.3949-87.3833383923809Clb=6.3m/s t=-64.2C h=-1.0% p=-1.0hPa 405.011 MHz Type=DFM17 ser=22043116 Radiosonde
KD9IXXD220431162022-12-07 00:27:0140.3943-87.3852713323712Clb=6.5m/s t=-63.4C h=-1.0% p=-1.0hPa 405.010 MHz Type=DFM17 ser=22043116 Radiosonde
K9SWXD220431162022-12-07 00:27:0040.3941-87.3863724123641Clb=5.1m/s t=-63.0C h=-1.0% p=-1.0hPa 405.011 MHz Type=DFM17 ser=22043116 Radiosonde
KD9IXXD220431162022-12-07 00:26:5940.3933-87.3883724423527Clb=5.8m/s t=-62.2C h=-1.0% p=-1.0hPa 405.010 MHz Type=DFM17 ser=22043116 Radiosonde
K9SWXD220431162022-12-07 00:26:5840.3927-87.39633323447Clb=7.1m/s t=-62.0C h=-1.0% p=-1.0hPa 405.011 MHz Type=DFM17 ser=22043116 Radiosonde
KD9IXXD220431162022-12-07 00:26:5740.3922-87.3919634823349Clb=7.3m/s t=-61.4C h=-1.0% p=-1.0hPa 405.010 MHz Type=DFM17 ser=22043116 Radiosonde
K9SWXD220431162022-12-07 00:26:5640.3919-87.3932765023297Clb=6.3m/s t=-61.3C h=-1.0% p=-1.0hPa 405.011 MHz Type=DFM17 ser=22043116 Radiosonde
KD9IXXD220431162022-12-07 00:26:3140.3913-87.3967665723163Clb=5.2m/s t=-61.1C h=-1.0% p=-1.0hPa 405.010 MHz Type=DFM17 ser=22043116 Radiosonde
K9SWXD220431162022-12-07 00:26:1540.391-87.3979774823115Clb=3.5m/s t=-60.8C h=-1.0% p=-1.0hPa 405.011 MHz Type=DFM17 ser=22043116 Radiosonde
KD9IXXD220431162022-12-07 00:25:3840.3908-87.4018946122983Clb=8.0m/s t=-60.2C h=-1.0% p=-1.0hPa 405.010 MHz Type=DFM17 ser=22043116 Radiosonde
K9SWXD220431162022-12-07 00:25:2440.3909-87.4037876722927Clb=7.1m/s t=-60.9C h=-1.0% p=-1.0hPa 405.011 MHz Type=DFM17 ser=22043116 Radiosonde
KD9IXXD220431162022-12-07 00:24:4740.3909-87.4082935722796Clb=5.5m/s t=-61.2C h=-1.0% p=-1.0hPa 405.010 MHz Type=DFM17 ser=22043116 Radiosonde
K9SWXD220431162022-12-07 00:24:3240.3909-87.4102725922738Clb=4.4m/s t=-62.2C h=-1.0% p=-1.0hPa 405.011 MHz Type=DFM17 ser=22043116 Radiosonde
KD9IXXD220431162022-12-07 00:23:5240.3911-87.4146747022625Clb=3.0m/s t=-61.8C h=-1.0% p=-1.0hPa 405.010 MHz Type=DFM17 ser=22043116 Radiosonde
K9SWXD220431162022-12-07 00:23:3840.3911-87.4162986522583Clb=7.5m/s t=-61.4C h=-1.0% p=-1.0hPa 405.011 MHz Type=DFM17 ser=22043116 Radiosonde
KD9IXXD220431162022-12-07 00:22:5740.3915-87.41991014822470Clb=3.6m/s t=-61.7C h=-1.0% p=-1.0hPa 405.010 MHz Type=DFM17 ser=22043116 Radiosonde
K9SWXD220431162022-12-07 00:22:4140.3916-87.4215735722428Clb=4.6m/s t=-61.7C h=-1.0% p=-1.0hPa 405.011 MHz Type=DFM17 ser=22043116 Radiosonde
KD9IXXD220431162022-12-07 00:22:0240.3915-87.4258806322322Clb=5.6m/s t=-62.0C h=-1.0% p=-1.0hPa 405.010 MHz Type=DFM17 ser=22043116 Radiosonde
K9SWXD220431162022-12-07 00:21:4740.3914-87.4276787622288Clb=4.1m/s t=-62.0C h=-1.0% p=-1.0hPa 405.011 MHz Type=DFM17 ser=22043116 Radiosonde
KD9IXXD220431162022-12-07 00:21:1040.391-87.4331856522192Clb=1.8m/s t=-62.7C h=-1.0% p=-1.0hPa 405.010 MHz Type=DFM17 ser=22043116 Radiosonde
K9SWXD220431162022-12-07 00:20:5440.3907-87.435718022154Clb=7.3m/s t=-62.9C h=-1.0% p=-1.0hPa 405.011 MHz Type=DFM17 ser=22043116 Radiosonde
KD9IXXD220431162022-12-07 00:20:1840.3892-87.4397615622043Clb=5.5m/s t=-62.9C h=-1.0% p=-1.0hPa 405.010 MHz Type=DFM17 ser=22043116 Radiosonde
K9SWXD220431162022-12-07 00:20:0240.3885-87.4411574821997Clb=4.8m/s t=-63.4C h=-1.0% p=-1.0hPa 405.011 MHz Type=DFM17 ser=22043116 Radiosonde
KD9IXXD220431162022-12-07 00:19:2440.3868-87.4442615021883Clb=6.7m/s t=-64.6C h=-1.0% p=-1.0hPa 405.010 MHz Type=DFM17 ser=22043116 Radiosonde
K9SWXD220431162022-12-07 00:19:0840.3864-87.4451793121840Clb=5.0m/s t=-64.9C h=-1.0% p=-1.0hPa 405.011 MHz Type=DFM17 ser=22043116 Radiosonde
KD9IXXD220431162022-12-07 00:18:3240.3856-87.4485763321716Clb=4.0m/s t=-64.4C h=-1.0% p=-1.0hPa 405.010 MHz Type=DFM17 ser=22043116 Radiosonde
K9SWXD220431162022-12-07 00:18:1440.3854-87.4497755221671Clb=6.2m/s t=-64.5C h=-1.0% p=-1.0hPa 405.011 MHz Type=DFM17 ser=22043116 Radiosonde
KD9IXXD220431162022-12-07 00:17:3740.3846-87.4537696721552Clb=6.0m/s t=-64.5C h=-1.0% p=-1.0hPa 405.010 MHz Type=DFM17 ser=22043116 Radiosonde
K9SWXD220431162022-12-07 00:17:2040.3842-87.4556787821499Clb=5.2m/s t=-64.2C h=-1.0% p=-1.0hPa 405.011 MHz Type=DFM17 ser=22043116 Radiosonde
KD9IXXD220431162022-12-07 00:16:4140.3831-87.4601766721367Clb=5.7m/s t=-63.9C h=-1.0% p=-1.0hPa 405.010 MHz Type=DFM17 ser=22043116 Radiosonde
K9SWXD220431162022-12-07 00:16:2540.3824-87.4624597421308Clb=6.4m/s t=-63.8C h=-1.0% p=-1.0hPa 405.011 MHz Type=DFM17 ser=22043116 Radiosonde
KD9IXXD220431162022-12-07 00:15:4840.381-87.4667725621188Clb=6.8m/s t=-63.8C h=-1.0% p=-1.0hPa 405.010 MHz Type=DFM17 ser=22043116 Radiosonde
K9SWXD220431162022-12-07 00:15:3340.3805-87.4685686121138Clb=6.1m/s t=-63.7C h=-1.0% p=-1.0hPa 405.011 MHz Type=DFM17 ser=22043116 Radiosonde
KD9IXXD220431162022-12-07 00:14:5540.3791-87.4725666121012Clb=7.2m/s t=-63.6C h=-1.0% p=-1.0hPa 405.010 MHz Type=DFM17 ser=22043116 Radiosonde
K9SWXD220431162022-12-07 00:14:4040.3787-87.4743766720961Clb=3.5m/s t=-63.7C h=-1.0% p=-1.0hPa 405.011 MHz Type=DFM17 ser=22043116 Radiosonde
KD9IXXD220431162022-12-07 00:14:0240.3772-87.4788567420839Clb=4.1m/s t=-63.4C h=-1.0% p=-1.0hPa 405.010 MHz Type=DFM17 ser=22043116 Radiosonde
K9SWXD220431162022-12-07 00:13:4840.3767-87.4803676320793Clb=6.5m/s t=-63.3C h=-1.0% p=-1.0hPa 405.011 MHz Type=DFM17 ser=22043116 Radiosonde
KD9IXXD220431162022-12-07 00:13:1040.3754-87.4843805020683Clb=3.9m/s t=-62.9C h=-1.0% p=-1.0hPa 405.010 MHz Type=DFM17 ser=22043116 Radiosonde
K9SWXD220431162022-12-07 00:12:5540.3749-87.486636120634Clb=5.3m/s t=-63.0C h=-1.0% p=-1.0hPa 405.011 MHz Type=DFM17 ser=22043116 Radiosonde
K9SWXD220431162022-12-07 00:12:3040.374-87.4921877220476Clb=3.5m/s t=-63.5C h=-1.0% p=-1.0hPa 405.011 MHz Type=DFM17 ser=22043116 Radiosonde
KD9IXXD220431162022-12-07 00:11:5640.374-87.496807620378Clb=4.7m/s t=-64.2C h=-1.0% p=-1.0hPa 405.010 MHz Type=DFM17 ser=22043116 Radiosonde
K9SWXD220431162022-12-07 00:11:4640.3742-87.49761016520334Clb=4.8m/s t=-64.1C h=-1.0% p=-1.0hPa 405.011 MHz Type=DFM17 ser=22043116 Radiosonde
KD9IXXD220431162022-12-07 00:11:2740.3749-87.5023887420224Clb=4.5m/s t=-64.9C h=-1.0% p=-1.0hPa 405.010 MHz Type=DFM17 ser=22043116 Radiosonde
K9SWXD220431162022-12-07 00:11:1740.375-87.5045978720181Clb=5.8m/s t=-65.3C h=-1.0% p=-1.0hPa 405.011 MHz Type=DFM17 ser=22043116 Radiosonde
KD9IXXD220431162022-12-07 00:10:5540.3757-87.51071017620068Clb=5.4m/s t=-65.4C h=-1.0% p=-1.0hPa 405.010 MHz Type=DFM17 ser=22043116 Radiosonde
K9SWXD220431162022-12-07 00:10:5340.3759-87.5131068320032Clb=3.6m/s t=-65.5C h=-1.0% p=-1.0hPa 405.011 MHz Type=DFM17 ser=22043116 Radiosonde
KD9IXXD220431162022-12-07 00:10:4540.3758-87.5192849419918Clb=5.7m/s t=-65.6C h=-1.0% p=-1.0hPa 405.010 MHz Type=DFM17 ser=22043116 Radiosonde
K9SWXD220431162022-12-07 00:10:4240.3756-87.5219748919869Clb=5.7m/s t=-65.5C h=-1.0% p=-1.0hPa 405.011 MHz Type=DFM17 ser=22043116 Radiosonde
KD9IXXD220431162022-12-07 00:10:2240.3745-87.5283608019745Clb=4.8m/s t=-66.5C h=-1.0% p=-1.0hPa 405.010 MHz Type=DFM17 ser=22043116 Radiosonde
K9SWXD220431162022-12-07 00:10:1440.374-87.5306759319696Clb=5.5m/s t=-66.3C h=-1.0% p=-1.0hPa 405.011 MHz Type=DFM17 ser=22043116 Radiosonde
KD9IXXD220431162022-12-07 00:10:0140.3732-87.5367909119578Clb=4.6m/s t=-65.6C h=-1.0% p=-1.0hPa 405.010 MHz Type=DFM17 ser=22043116 Radiosonde
K9SWXD220431162022-12-07 00:10:0040.373-87.539898919538Clb=4.7m/s t=-65.3C h=-1.0% p=-1.0hPa 405.011 MHz Type=DFM17 ser=22043116 Radiosonde
KD9IXXD220431162022-12-07 00:09:5440.3725-87.5458919419421Clb=3.5m/s t=-65.4C h=-1.0% p=-1.0hPa 405.010 MHz Type=DFM17 ser=22043116 Radiosonde
K9SWXD220431162022-12-07 00:09:5240.3724-87.5481788319382Clb=5.2m/s t=-65.4C h=-1.0% p=-1.0hPa 405.011 MHz Type=DFM17 ser=22043116 Radiosonde
KD9IXXD220431162022-12-07 00:09:4840.3717-87.5547779419282Clb=5.5m/s t=-66.4C h=-1.0% p=-1.0hPa 405.010 MHz Type=DFM17 ser=22043116 Radiosonde
K9SWXD220431162022-12-07 00:09:4740.3712-87.5569699819242Clb=4.7m/s t=-66.4C h=-1.0% p=-1.0hPa 405.011 MHz Type=DFM17 ser=22043116 Radiosonde
KD9IXXD220431162022-12-07 00:09:4640.3698-87.5634738719134Clb=4.9m/s t=-66.0C h=-1.0% p=-1.0hPa 405.010 MHz Type=DFM17 ser=22043116 Radiosonde
KD9IXXD220431162022-12-07 00:09:4440.3678-87.5713818318992Clb=4.5m/s t=-66.6C h=-1.0% p=-1.0hPa 405.010 MHz Type=DFM17 ser=22043116 Radiosonde
KD9IXXD220431162022-12-07 00:09:4340.3662-87.5791837818857Clb=6.3m/s t=-66.1C h=-1.0% p=-1.0hPa 405.010 MHz Type=DFM17 ser=22043116 Radiosonde
K9SWXD220431162022-12-07 00:09:4240.3658-87.5813847618814Clb=5.5m/s t=-65.8C h=-1.0% p=-1.0hPa 405.011 MHz Type=DFM17 ser=22043116 Radiosonde
KD9IXXD220431162022-12-07 00:09:4140.3651-87.58717710618699Clb=5.1m/s t=-65.5C h=-1.0% p=-1.0hPa 405.010 MHz Type=DFM17 ser=22043116 Radiosonde
KD9IXXD220431162022-12-07 00:09:2840.3643-87.5957929318550Clb=4.7m/s t=-66.4C h=-1.0% p=-1.0hPa 405.010 MHz Type=DFM17 ser=22043116 Radiosonde
K9SWXD220431162022-12-07 00:09:1540.3642-87.5983928718502Clb=6.2m/s t=-66.9C h=-1.0% p=-1.0hPa 405.011 MHz Type=DFM17 ser=22043116 Radiosonde
KD9IXXD220431162022-12-07 00:08:3840.3644-87.6046888918387Clb=5.4m/s t=-66.0C h=-1.0% p=-1.0hPa 405.010 MHz Type=DFM17 ser=22043116 Radiosonde
K9SWXD220431162022-12-07 00:08:2540.3646-87.6075908718333Clb=5.6m/s t=-65.7C h=-1.0% p=-1.0hPa 405.011 MHz Type=DFM17 ser=22043116 Radiosonde
KD9IXXD220431162022-12-07 00:07:4940.3652-87.6134988718224Clb=5.3m/s t=-64.9C h=-1.0% p=-1.0hPa 405.010 MHz Type=DFM17 ser=22043116 Radiosonde
K9SWXD220431162022-12-07 00:07:3540.3655-87.6161048018176Clb=6.2m/s t=-64.6C h=-1.0% p=-1.0hPa 405.011 MHz Type=DFM17 ser=22043116 Radiosonde
KD9IXXD220431162022-12-07 00:06:5740.3668-87.62221049618062Clb=6.1m/s t=-64.1C h=-1.0% p=-1.0hPa 405.010 MHz Type=DFM17 ser=22043116 Radiosonde
K9SWXD220431162022-12-07 00:06:4440.3673-87.6253949318012Clb=4.0m/s t=-63.9C h=-1.0% p=-1.0hPa 405.011 MHz Type=DFM17 ser=22043116 Radiosonde
KD9IXXD220431162022-12-07 00:06:0340.368-87.6311948017911Clb=5.2m/s t=-63.6C h=-1.0% p=-1.0hPa 405.010 MHz Type=DFM17 ser=22043116 Radiosonde
K9SWXD220431162022-12-07 00:05:4840.3682-87.6336979817865Clb=5.4m/s t=-63.9C h=-1.0% p=-1.0hPa 405.011 MHz Type=DFM17 ser=22043116 Radiosonde
KD9IXXD220431162022-12-07 00:05:1140.3686-87.6402909817761Clb=5.6m/s t=-64.3C h=-1.0% p=-1.0hPa 405.010 MHz Type=DFM17 ser=22043116 Radiosonde
K9SWXD220431162022-12-07 00:04:5640.3686-87.643938517722Clb=4.9m/s t=-64.0C h=-1.0% p=-1.0hPa 405.011 MHz Type=DFM17 ser=22043116 Radiosonde
KD9IXXD220431162022-12-07 00:04:2140.3688-87.64988810017620Clb=4.7m/s t=-63.8C h=-1.0% p=-1.0hPa 405.010 MHz Type=DFM17 ser=22043116 Radiosonde
K9SWXD220431162022-12-07 00:04:0640.3689-87.65268910917579Clb=4.3m/s t=-63.8C h=-1.0% p=-1.0hPa 405.011 MHz Type=DFM17 ser=22043116 Radiosonde
KD9IXXD220431162022-12-07 00:03:3040.369-87.66019210017485Clb=4.8m/s t=-64.7C h=-1.0% p=-1.0hPa 405.010 MHz Type=DFM17 ser=22043116 Radiosonde
K9SWXD220431162022-12-07 00:03:1640.3692-87.66338911317447Clb=5.1m/s t=-64.8C h=-1.0% p=-1.0hPa 405.011 MHz Type=DFM17 ser=22043116 Radiosonde
KD9IXXD220431162022-12-07 00:02:4240.3689-87.67268711517346Clb=5.2m/s t=-65.3C h=-1.0% p=-1.0hPa 405.010 MHz Type=DFM17 ser=22043116 Radiosonde
K9SWXD220431162022-12-07 00:02:2540.3689-87.67528610417313Clb=3.6m/s t=-66.1C h=-1.0% p=-1.0hPa 405.011 MHz Type=DFM17 ser=22043116 Radiosonde
KD9IXXD220431162022-12-07 00:01:4840.3689-87.68419313917196Clb=4.0m/s t=-66.3C h=-1.0% p=-1.0hPa 405.010 MHz Type=DFM17 ser=22043116 Radiosonde
K9SWXD220431162022-12-07 00:01:3140.3687-87.6888815617150Clb=5.0m/s t=-66.6C h=-1.0% p=-1.0hPa 405.011 MHz Type=DFM17 ser=22043116 Radiosonde
K9SWXD220431162022-12-07 00:00:3740.3671-87.70187115716975Clb=4.9m/s t=-66.7C h=-1.0% p=-1.0hPa 405.011 MHz Type=DFM17 ser=22043116 Radiosonde
K9SWXD220431162022-12-06 23:59:5240.364-87.71556213316803Clb=4.9m/s t=-67.5C h=-1.0% p=-1.0hPa 405.011 MHz Type=DFM17 ser=22043116 Radiosonde
KD9IXXD220431162022-12-06 23:59:3940.3612-87.72416813516692Clb=6.5m/s t=-67.2C h=-1.0% p=-1.0hPa 405.010 MHz Type=DFM17 ser=22043116 Radiosonde
K9SWXD220431162022-12-06 23:59:3740.3566-87.73967213516499Clb=3.5m/s t=-67.9C h=-1.0% p=-1.0hPa 405.011 MHz Type=DFM17 ser=22043116 Radiosonde
KD9IXXD220431162022-12-06 23:59:3640.3544-87.74857114116399Clb=4.9m/s t=-67.4C h=-1.0% p=-1.0hPa 405.010 MHz Type=DFM17 ser=22043116 Radiosonde
K9SWXD220431162022-12-06 23:59:3540.3536-87.75227412416357Clb=4.7m/s t=-67.1C h=-1.0% p=-1.0hPa 405.011 MHz Type=DFM17 ser=22043116 Radiosonde
K9SWXD220431162022-12-06 23:59:3040.3513-87.7658113516204Clb=5.9m/s t=-66.9C h=-1.0% p=-1.0hPa 405.011 MHz Type=DFM17 ser=22043116 Radiosonde
KD9IXXD220431162022-12-06 23:59:1140.3497-87.77488215016100Clb=5.2m/s t=-66.7C h=-1.0% p=-1.0hPa 405.010 MHz Type=DFM17 ser=22043116 Radiosonde
K9SWXD220431162022-12-06 23:59:0240.349-87.77878212616046Clb=5.6m/s t=-66.4C h=-1.0% p=-1.0hPa 405.011 MHz Type=DFM17 ser=22043116 Radiosonde
KD9IXXD220431162022-12-06 23:59:0040.3466-87.78786613915932Clb=4.7m/s t=-66.2C h=-1.0% p=-1.0hPa 405.010 MHz Type=DFM17 ser=22043116 Radiosonde
K9SWXD220431162022-12-06 23:58:5940.3455-87.79157113315885Clb=6.4m/s t=-66.0C h=-1.0% p=-1.0hPa 405.011 MHz Type=DFM17 ser=22043116 Radiosonde
KD9IXXD220431162022-12-06 23:58:5840.3432-87.80038414415769Clb=5.7m/s t=-66.1C h=-1.0% p=-1.0hPa 405.010 MHz Type=DFM17 ser=22043116 Radiosonde
K9SWXD220431162022-12-06 23:58:5340.3426-87.80438012615717Clb=7.2m/s t=-65.7C h=-1.0% p=-1.0hPa 405.011 MHz Type=DFM17 ser=22043116 Radiosonde
KD9IXXD220431162022-12-06 23:58:2240.3415-87.81328614115608Clb=5.2m/s t=-65.3C h=-1.0% p=-1.0hPa 405.010 MHz Type=DFM17 ser=22043116 Radiosonde
K9SWXD220431162022-12-06 23:58:0840.3411-87.81728513115564Clb=4.0m/s t=-65.2C h=-1.0% p=-1.0hPa 405.011 MHz Type=DFM17 ser=22043116 Radiosonde
KD9IXXD220431162022-12-06 23:57:2940.3405-87.8278614115464Clb=5.3m/s t=-65.1C h=-1.0% p=-1.0hPa 405.010 MHz Type=DFM17 ser=22043116 Radiosonde
K9SWXD220431162022-12-06 23:57:1440.3403-87.83128714115423Clb=4.4m/s t=-64.9C h=-1.0% p=-1.0hPa 405.011 MHz Type=DFM17 ser=22043116 Radiosonde
KD9IXXD220431162022-12-06 23:56:3440.34-87.84238715615318Clb=4.0m/s t=-64.2C h=-1.0% p=-1.0hPa 405.010 MHz Type=DFM17 ser=22043116 Radiosonde
K9SWXD220431162022-12-06 23:56:1940.3399-87.84638814815283Clb=4.4m/s t=-64.0C h=-1.0% p=-1.0hPa 405.011 MHz Type=DFM17 ser=22043116 Radiosonde
KD9IXXD220431162022-12-06 23:55:4340.3396-87.85728515415182Clb=4.0m/s t=-63.7C h=-1.0% p=-1.0hPa 405.010 MHz Type=DFM17 ser=22043116 Radiosonde
K9SWXD220431162022-12-06 23:55:3040.3395-87.86188515015140Clb=5.4m/s t=-63.6C h=-1.0% p=-1.0hPa 405.011 MHz Type=DFM17 ser=22043116 Radiosonde
KD9IXXD220431162022-12-06 23:54:5440.3391-87.87328715415036Clb=5.1m/s t=-62.9C h=-1.0% p=-1.0hPa 405.010 MHz Type=DFM17 ser=22043116 Radiosonde
K9SWXD220431162022-12-06 23:54:4140.339-87.87778614815000Clb=5.7m/s t=-62.7C h=-1.0% p=-1.0hPa 405.011 MHz Type=DFM17 ser=22043116 Radiosonde
KD9IXXD220431162022-12-06 23:54:0540.3385-87.88788614314908Clb=4.6m/s t=-62.9C h=-1.0% p=-1.0hPa 405.010 MHz Type=DFM17 ser=22043116 Radiosonde
K9SWXD220431162022-12-06 23:53:5140.3382-87.89218615014868Clb=5.4m/s t=-62.9C h=-1.0% p=-1.0hPa 405.011 MHz Type=DFM17 ser=22043116 Radiosonde
KD9IXXD220431162022-12-06 23:53:1540.3382-87.90428915614758Clb=5.1m/s t=-63.7C h=-1.0% p=-1.0hPa 405.010 MHz Type=DFM17 ser=22043116 Radiosonde
K9SWXD220431162022-12-06 23:53:0240.3382-87.90849315914722Clb=3.9m/s t=-63.6C h=-1.0% p=-1.0hPa 405.011 MHz Type=DFM17 ser=22043116 Radiosonde
KD9IXXD220431162022-12-06 23:52:2440.3386-87.929716114620Clb=4.9m/s t=-63.6C h=-1.0% p=-1.0hPa 405.010 MHz Type=DFM17 ser=22043116 Radiosonde
K9SWXD220431162022-12-06 23:52:0740.3388-87.92439515414580Clb=3.7m/s t=-63.5C h=-1.0% p=-1.0hPa 405.011 MHz Type=DFM17 ser=22043116 Radiosonde
KD9IXXD220431162022-12-06 23:51:4340.3391-87.93738817214464Clb=5.6m/s t=-62.7C h=-1.0% p=-1.0hPa 405.010 MHz Type=DFM17 ser=22043116 Radiosonde
K9SWXD220431162022-12-06 23:51:3540.3391-87.94349419314411Clb=5.6m/s t=-62.4C h=-1.0% p=-1.0hPa 405.011 MHz Type=DFM17 ser=22043116 Radiosonde
KD9IXXD220431162022-12-06 23:51:2740.3391-87.95719420614299Clb=4.8m/s t=-61.9C h=-1.0% p=-1.0hPa 405.010 MHz Type=DFM17 ser=22043116 Radiosonde
K9SWXD220431162022-12-06 23:51:2540.339-87.96219222614250Clb=7.5m/s t=-61.9C h=-1.0% p=-1.0hPa 405.011 MHz Type=DFM17 ser=22043116 Radiosonde
KD9IXXD220431162022-12-06 23:51:0440.3382-87.97678220714131Clb=4.2m/s t=-61.7C h=-1.0% p=-1.0hPa 405.010 MHz Type=DFM17 ser=22043116 Radiosonde
K9SWXD220431162022-12-06 23:51:0040.3377-87.98277820214085Clb=4.4m/s t=-61.8C h=-1.0% p=-1.0hPa 405.011 MHz Type=DFM17 ser=22043116 Radiosonde
KD9IXXD220431162022-12-06 23:50:5640.3357-87.99828121313987Clb=5.3m/s t=-62.0C h=-1.0% p=-1.0hPa 405.010 MHz Type=DFM17 ser=22043116 Radiosonde
K9SWXD220431162022-12-06 23:50:5540.3351-88.00378421313949Clb=5.1m/s t=-62.1C h=-1.0% p=-1.0hPa 405.011 MHz Type=DFM17 ser=22043116 Radiosonde
KD9IXXD220431162022-12-06 23:50:5440.3334-88.01838119413852Clb=4.5m/s t=-61.8C h=-1.0% p=-1.0hPa 405.010 MHz Type=DFM17 ser=22043116 Radiosonde
KD9IXXD220431162022-12-06 23:50:5340.331-88.03778219113716Clb=4.3m/s t=-61.9C h=-1.0% p=-1.0hPa 405.010 MHz Type=DFM17 ser=22043116 Radiosonde
K9SWXD220431162022-12-06 23:50:5240.3304-88.0448119113671Clb=4.8m/s t=-61.9C h=-1.0% p=-1.0hPa 405.011 MHz Type=DFM17 ser=22043116 Radiosonde
KD9IXXD220431162022-12-06 23:50:5140.3289-88.05748019113581Clb=3.8m/s t=-62.1C h=-1.0% p=-1.0hPa 405.010 MHz Type=DFM17 ser=22043116 Radiosonde
K9SWXD220431162022-12-06 23:50:4440.3283-88.06338119313540Clb=4.7m/s t=-61.9C h=-1.0% p=-1.0hPa 405.011 MHz Type=DFM17 ser=22043116 Radiosonde
KD9IXXD220431162022-12-06 23:50:2040.3266-88.07757919813443Clb=4.3m/s t=-61.4C h=-1.0% p=-1.0hPa 405.010 MHz Type=DFM17 ser=22043116 Radiosonde
K9SWXD220431162022-12-06 23:50:0640.3258-88.08327820213401Clb=4.3m/s t=-61.2C h=-1.0% p=-1.0hPa 405.011 MHz Type=DFM17 ser=22043116 Radiosonde
KD9IXXD220431162022-12-06 23:49:3240.3238-88.09858021513303Clb=3.6m/s t=-61.1C h=-1.0% p=-1.0hPa 405.010 MHz Type=DFM17 ser=22043116 Radiosonde
K9SWXD220431162022-12-06 23:49:1740.3231-88.1048120713269Clb=4.9m/s t=-61.4C h=-1.0% p=-1.0hPa 405.011 MHz Type=DFM17 ser=22043116 Radiosonde
KD9IXXD220431162022-12-06 23:48:4340.321-88.11887720213169Clb=4.0m/s t=-60.8C h=-1.0% p=-1.0hPa 405.010 MHz Type=DFM17 ser=22043116 Radiosonde
K9SWXD220431162022-12-06 23:48:2940.3201-88.12477820013129Clb=6.0m/s t=-60.5C h=-1.0% p=-1.0hPa 405.011 MHz Type=DFM17 ser=22043116 Radiosonde
KD9IXXD220431162022-12-06 23:47:5840.3177-88.13917719413029Clb=4.4m/s t=-60.5C h=-1.0% p=-1.0hPa 405.010 MHz Type=DFM17 ser=22043116 Radiosonde
K9SWXD220431162022-12-06 23:47:4840.3167-88.14567720012982Clb=5.1m/s t=-60.6C h=-1.0% p=-1.0hPa 405.011 MHz Type=DFM17 ser=22043116 Radiosonde
KD9IXXD220431162022-12-06 23:47:1040.3148-88.15957919812886Clb=4.0m/s t=-60.9C h=-1.0% p=-1.0hPa 405.010 MHz Type=DFM17 ser=22043116 Radiosonde
K9SWXD220431162022-12-06 23:46:5440.314-88.16557920012844Clb=4.2m/s t=-60.6C h=-1.0% p=-1.0hPa 405.011 MHz Type=DFM17 ser=22043116 Radiosonde
KD9IXXD220431162022-12-06 23:46:1940.3123-88.18028019612746Clb=3.3m/s t=-60.1C h=-1.0% p=-1.0hPa 405.010 MHz Type=DFM17 ser=22043116 Radiosonde
K9SWXD220431162022-12-06 23:46:0440.3116-88.18698121712696Clb=5.3m/s t=-60.2C h=-1.0% p=-1.0hPa 405.011 MHz Type=DFM17 ser=22043116 Radiosonde
KD9IXXD220431162022-12-06 23:45:2940.3105-88.20218421712600Clb=5.6m/s t=-60.7C h=-1.0% p=-1.0hPa 405.010 MHz Type=DFM17 ser=22043116 Radiosonde
K9SWXD220431162022-12-06 23:45:1540.31-88.20788321912567Clb=3.7m/s t=-60.8C h=-1.0% p=-1.0hPa 405.011 MHz Type=DFM17 ser=22043116 Radiosonde
KD9IXXD220431162022-12-06 23:44:4240.3087-88.22478222212469Clb=4.0m/s t=-60.4C h=-1.0% p=-1.0hPa 405.010 MHz Type=DFM17 ser=22043116 Radiosonde
K9SWXD220431162022-12-06 23:44:2940.3082-88.2328522012427Clb=4.0m/s t=-60.6C h=-1.0% p=-1.0hPa 405.011 MHz Type=DFM17 ser=22043116 Radiosonde
KD9IXXD220431162022-12-06 23:43:5740.3073-88.24748322412335Clb=4.7m/s t=-60.5C h=-1.0% p=-1.0hPa 405.010 MHz Type=DFM17 ser=22043116 Radiosonde
K9SWXD220431162022-12-06 23:43:4940.3069-88.2548522612298Clb=5.5m/s t=-60.5C h=-1.0% p=-1.0hPa 405.011 MHz Type=DFM17 ser=22043116 Radiosonde
KD9IXXD220431162022-12-06 23:43:3040.306-88.27048523312208Clb=4.4m/s t=-60.1C h=-1.0% p=-1.0hPa 405.010 MHz Type=DFM17 ser=22043116 Radiosonde
K9SWXD220431162022-12-06 23:43:2840.3056-88.27728423012171Clb=5.0m/s t=-59.9C h=-1.0% p=-1.0hPa 405.011 MHz Type=DFM17 ser=22043116 Radiosonde
KD9IXXD220431162022-12-06 23:43:1740.3042-88.29458323912079Clb=4.5m/s t=-59.7C h=-1.0% p=-1.0hPa 405.010 MHz Type=DFM17 ser=22043116 Radiosonde
K9SWXD220431162022-12-06 23:43:0640.3038-88.30068223712048Clb=3.5m/s t=-59.6C h=-1.0% p=-1.0hPa 405.011 MHz Type=DFM17 ser=22043116 Radiosonde
K9SWXD220431162022-12-06 23:43:0040.3019-88.32428323011925Clb=3.8m/s t=-59.1C h=-1.0% p=-1.0hPa 405.011 MHz Type=DFM17 ser=22043116 Radiosonde
K9SWXD220431162022-12-06 23:42:3840.3002-88.34838523211789Clb=4.7m/s t=-59.1C h=-1.0% p=-1.0hPa 405.011 MHz Type=DFM17 ser=22043116 Radiosonde
K9SWXD220431162022-12-06 23:41:5040.2989-88.37138623911668Clb=4.0m/s t=-58.4C h=-1.0% p=-1.0hPa 405.011 MHz Type=DFM17 ser=22043116 Radiosonde
K9SWXD220431162022-12-06 23:41:0040.2977-88.39578524311542Clb=3.0m/s t=-57.7C h=-1.0% p=-1.0hPa 405.011 MHz Type=DFM17 ser=22043116 Radiosonde
K9SWXD220431162022-12-06 23:40:1640.2968-88.428824311414Clb=3.0m/s t=-56.9C h=-1.0% p=-1.0hPa 405.011 MHz Type=DFM17 ser=22043116 Radiosonde
K9SWXD220431162022-12-06 23:39:4140.2957-88.44438723911280Clb=4.8m/s t=-55.9C h=-1.0% p=-1.0hPa 405.011 MHz Type=DFM17 ser=22043116 Radiosonde
K9SWXD220431162022-12-06 23:39:1040.2941-88.46918423511144Clb=4.1m/s t=-55.1C h=-1.0% p=-1.0hPa 405.011 MHz Type=DFM17 ser=22043116 Radiosonde
K9SWXD220431162022-12-06 23:38:3840.2924-88.49238223711020Clb=3.9m/s t=-54.6C h=-1.0% p=-1.0hPa 405.011 MHz Type=DFM17 ser=22043116 Radiosonde
K9SWXD220431162022-12-06 23:38:1540.29-88.51568223210891Clb=5.3m/s t=-53.8C h=-1.0% p=-1.0hPa 405.011 MHz Type=DFM17 ser=22043116 Radiosonde
K9SWXD220431162022-12-06 23:38:1240.2873-88.53898023710760Clb=3.4m/s t=-52.9C h=-1.0% p=-1.0hPa 405.011 MHz Type=DFM17 ser=22043116 Radiosonde
K9SWXD220431162022-12-06 23:37:3340.2843-88.56248223310636Clb=3.3m/s t=-51.9C h=-1.0% p=-1.0hPa 405.011 MHz Type=DFM17 ser=22043116 Radiosonde
K9SWXD220431162022-12-06 23:36:4540.2813-88.58687923710501Clb=3.2m/s t=-50.9C h=-1.0% p=-1.0hPa 405.011 MHz Type=DFM17 ser=22043116 Radiosonde
K9SWXD220431162022-12-06 23:36:0340.2785-88.61058123310365Clb=4.6m/s t=-50.1C h=-1.0% p=-1.0hPa 405.011 MHz Type=DFM17 ser=22043116 Radiosonde
K9SWXD220431162022-12-06 23:35:3140.2756-88.6348122810232Clb=3.4m/s t=-49.3C h=-1.0% p=-1.0hPa 405.011 MHz Type=DFM17 ser=22043116 Radiosonde
K9SWXD220431162022-12-06 23:35:0040.2732-88.65738323010101Clb=4.6m/s t=-48.6C h=-1.0% p=-1.0hPa 405.011 MHz Type=DFM17 ser=22043116 Radiosonde
K9SWXD220431162022-12-06 23:34:2940.2711-88.6816812399966Clb=4.7m/s t=-48.5C h=-1.0% p=-1.0hPa 405.011 MHz Type=DFM17 ser=22043116 Radiosonde
K9SWXD220431162022-12-06 23:33:5840.2687-88.7052822249825Clb=3.6m/s t=-47.4C h=-1.0% p=-1.0hPa 405.011 MHz Type=DFM17 ser=22043116 Radiosonde
K9SWXD220431162022-12-06 23:33:4940.2665-88.7264822199698Clb=4.6m/s t=-46.5C h=-1.0% p=-1.0hPa 405.011 MHz Type=DFM17 ser=22043116 Radiosonde
K9SWXD220431162022-12-06 23:33:1540.2641-88.7486822139568Clb=4.7m/s t=-45.5C h=-1.0% p=-1.0hPa 405.011 MHz Type=DFM17 ser=22043116 Radiosonde
K9SWXD220431162022-12-06 23:32:3340.2615-88.7703812139434Clb=3.4m/s t=-44.6C h=-1.0% p=-1.0hPa 405.011 MHz Type=DFM17 ser=22043116 Radiosonde
K9SWXD220431162022-12-06 23:31:5440.259-88.7919802119301Clb=5.1m/s t=-43.7C h=-1.0% p=-1.0hPa 405.011 MHz Type=DFM17 ser=22043116 Radiosonde
K9SWXD220431162022-12-06 23:31:2340.2569-88.813832099164Clb=3.7m/s t=-43.1C h=-1.0% p=-1.0hPa 405.011 MHz Type=DFM17 ser=22043116 Radiosonde
K9SWXD220431162022-12-06 23:30:5240.2548-88.8335822069031Clb=5.7m/s t=-42.4C h=-1.0% p=-1.0hPa 405.011 MHz Type=DFM17 ser=22043116 Radiosonde
K9SWXD220431162022-12-06 23:30:2140.2527-88.8529811938877Clb=4.9m/s t=-41.4C h=-1.0% p=-1.0hPa 405.011 MHz Type=DFM17 ser=22043116 Radiosonde
K9SWXD220431162022-12-06 23:29:5040.2501-88.8713811728738Clb=3.7m/s t=-40.6C h=-1.0% p=-1.0hPa 405.011 MHz Type=DFM17 ser=22043116 Radiosonde
K9SWXD220431162022-12-06 23:29:2440.2475-88.8894801708592Clb=4.2m/s t=-39.3C h=-1.0% p=-1.0hPa 405.011 MHz Type=DFM17 ser=22043116 Radiosonde